Time;durP1;ratioP1;P1;durP2;ratioP2;P2;SDS_P1;SDS_P2;PMS_P1;PMS_P2;Temp;Humidity;BMP_temperature;BMP_pressure;BME280_temperature;BME280_humidity;BME280_pressure;Samples;Min_cycle;Max_cycle;Signal;HPM_P1;HPM_P2
2021/10/20 00:02:18;;;;;;;4.95;3.40;;;16.40;83.80;;;;;;5051935;28;20024;-78
2021/10/20 00:04:43;;;;;;;5.43;3.58;;;16.30;83.70;;;;;;5051692;28;20016;-78
2021/10/20 00:07:09;;;;;;;3.83;3.10;;;16.40;83.70;;;;;;5051662;28;20025;-79
2021/10/20 00:09:34;;;;;;;3.03;2.53;;;16.40;83.60;;;;;;5052013;28;20020;-78
2021/10/20 00:12:01;;;;;;;3.22;2.92;;;16.30;83.70;;;;;;5051273;28;20064;-78
2021/10/20 00:14:26;;;;;;;4.50;3.50;;;16.30;83.70;;;;;;5051826;28;20091;-79
2021/10/20 00:16:52;;;;;;;3.92;3.33;;;16.30;83.50;;;;;;5051630;28;20398;-78
2021/10/20 00:19:18;;;;;;;3.95;3.05;;;16.30;83.20;;;;;;5051808;28;20056;-78
2021/10/20 00:21:44;;;;;;;5.38;3.90;;;16.30;83.30;;;;;;5050180;28;20028;-77
2021/10/20 00:24:10;;;;;;;4.93;4.30;;;16.30;83.00;;;;;;5051728;28;20017;-78
2021/10/20 00:26:37;;;;;;;4.03;3.50;;;16.30;82.60;;;;;;5051518;28;20388;-79
2021/10/20 00:29:02;;;;;;;5.43;3.50;;;16.20;82.50;;;;;;5042437;28;20080;-77
2021/10/20 00:31:28;;;;;;;4.18;3.05;;;16.30;82.60;;;;;;5051589;28;20029;-79
2021/10/20 00:33:53;;;;;;;3.33;2.60;;;16.30;82.60;;;;;;5039264;28;20028;-78
2021/10/20 00:36:19;;;;;;;2.83;2.45;;;16.20;82.60;;;;;;5051344;28;20029;-78
2021/10/20 00:38:45;;;;;;;4.15;3.50;;;16.20;82.70;;;;;;5051272;28;20170;-78
2021/10/20 00:41:12;;;;;;;3.83;2.70;;;16.20;82.60;;;;;;5046373;28;20009;-78
2021/10/20 00:43:38;;;;;;;3.70;2.80;;;16.20;82.60;;;;;;5042581;28;20029;-78
2021/10/20 00:46:04;;;;;;;5.47;3.40;;;16.20;82.80;;;;;;5051043;28;20472;-78
2021/10/20 00:48:29;;;;;;;5.30;3.67;;;16.20;82.50;;;;;;5049169;28;20043;-78
2021/10/20 00:50:55;;;;;;;4.50;3.38;;;16.20;82.30;;;;;;5050125;28;20430;-78
2021/10/20 00:53:20;;;;;;;4.85;3.72;;;16.20;82.30;;;;;;5051038;28;20033;-77
2021/10/20 00:55:46;;;;;;;5.55;3.70;;;16.20;82.10;;;;;;5051154;28;20499;-79
2021/10/20 00:58:12;;;;;;;4.63;3.55;;;16.20;82.00;;;;;;5049984;28;20052;-78
2021/10/20 01:00:38;;;;;;;5.05;3.40;;;16.10;81.80;;;;;;5051145;28;20032;-78
2021/10/20 01:03:03;;;;;;;5.88;3.70;;;16.10;81.80;;;;;;5050666;28;20029;-79
2021/10/20 01:05:29;;;;;;;3.70;3.15;;;16.10;81.80;;;;;;5050827;28;20104;-79
2021/10/20 01:07:55;;;;;;;3.00;2.60;;;16.10;81.80;;;;;;5050042;28;20027;-78
2021/10/20 01:10:21;;;;;;;4.65;3.38;;;16.20;81.80;;;;;;5050760;28;20663;-78
2021/10/20 01:12:47;;;;;;;4.43;3.67;;;16.20;81.70;;;;;;5048976;28;20063;-77
2021/10/20 01:15:25;;;;;;;4.78;3.08;;;16.20;81.30;;;;;;5047847;28;20064;-79
2021/10/20 01:17:51;;;;;;;3.08;2.78;;;16.20;81.30;;;;;;5042122;28;20017;-78
2021/10/20 01:20:21;;;;;;;3.55;3.17;;;16.20;81.30;;;;;;5049424;28;20035;-79
2021/10/20 01:22:47;;;;;;;3.45;2.90;;;16.20;81.00;;;;;;5043295;28;20029;-79
2021/10/20 01:25:14;;;;;;;3.50;2.58;;;16.30;80.80;;;;;;5049687;28;20017;-77
2021/10/20 01:27:39;;;;;;;3.05;2.70;;;16.20;80.90;;;;;;5048453;28;20040;-78
2021/10/20 01:30:06;;;;;;;4.70;3.38;;;16.20;80.90;;;;;;5050401;28;20025;-78
2021/10/20 01:32:32;;;;;;;4.88;2.85;;;16.20;80.80;;;;;;5050598;28;20025;-78
2021/10/20 01:34:58;;;;;;;4.03;3.25;;;16.30;80.70;;;;;;5050307;28;20032;-78
2021/10/20 01:37:24;;;;;;;5.75;2.70;;;16.30;80.70;;;;;;5050088;28;20044;-79
2021/10/20 01:39:51;;;;;;;5.22;2.63;;;16.30;80.50;;;;;;5050990;28;20024;-78
2021/10/20 01:42:17;;;;;;;4.20;3.00;;;16.30;80.50;;;;;;5050577;28;20028;-78
2021/10/20 01:44:43;;;;;;;5.22;2.83;;;16.30;80.40;;;;;;5048749;28;20025;-77
2021/10/20 01:47:08;;;;;;;4.90;3.33;;;16.40;80.40;;;;;;5050296;28;20031;-78
2021/10/20 01:49:34;;;;;;;5.40;3.40;;;16.40;80.10;;;;;;5050074;28;20468;-78
2021/10/20 01:51:59;;;;;;;4.13;3.17;;;16.50;79.90;;;;;;5050339;28;20021;-78
2021/10/20 01:54:25;;;;;;;5.60;3.40;;;16.50;79.80;;;;;;5048703;28;20496;-79
2021/10/20 01:56:50;;;;;;;4.53;3.00;;;16.50;79.60;;;;;;5048864;28;20025;-77
2021/10/20 01:59:16;;;;;;;3.85;3.10;;;16.60;79.40;;;;;;5050042;28;20036;-78
2021/10/20 02:01:42;;;;;;;5.05;3.08;;;16.50;79.10;;;;;;5048419;28;20029;-78
2021/10/20 02:04:12;;;;;;;4.60;3.20;;;16.50;79.00;;;;;;5047599;28;20023;-78
2021/10/20 02:06:38;;;;;;;4.50;3.10;;;16.50;78.90;;;;;;5049885;28;20032;-78
2021/10/20 02:09:07;;;;;;;3.42;2.70;;;16.50;78.80;;;;;;5046011;28;20025;-78
2021/10/20 02:11:33;;;;;;;4.43;3.08;;;16.60;79.10;;;;;;5048892;28;20037;-79
2021/10/20 02:14:00;;;;;;;4.90;3.47;;;16.60;78.90;;;;;;5048530;28;20029;-79
2021/10/20 02:16:25;;;;;;;3.80;3.15;;;16.60;78.60;;;;;;5050220;28;20028;-78
2021/10/20 02:18:51;;;;;;;3.03;2.70;;;16.60;78.50;;;;;;5049538;28;20021;-78
2021/10/20 02:21:16;;;;;;;4.80;3.08;;;16.60;78.40;;;;;;5050101;28;20021;-78
2021/10/20 02:23:42;;;;;;;4.85;3.00;;;16.60;78.50;;;;;;5049498;28;20021;-78
2021/10/20 02:26:08;;;;;;;3.50;2.47;;;16.60;78.40;;;;;;5049099;28;20025;-78
2021/10/20 02:28:33;;;;;;;2.67;2.47;;;16.60;78.50;;;;;;5053477;28;20037;-78
2021/10/20 02:30:59;;;;;;;4.07;3.10;;;16.60;78.70;;;;;;5053729;28;20013;-77
2021/10/20 02:33:25;;;;;;;3.08;2.30;;;16.60;78.40;;;;;;5047907;28;20017;-78
2021/10/20 02:35:50;;;;;;;3.90;2.80;;;16.70;78.90;;;;;;5053844;28;20107;-78
2021/10/20 02:38:16;;;;;;;3.95;2.92;;;16.60;78.60;;;;;;5052955;28;20029;-79
2021/10/20 02:40:41;;;;;;;4.22;2.90;;;16.60;78.40;;;;;;5064859;28;20499;-79
2021/10/20 02:43:07;;;;;;;4.55;3.03;;;16.60;78.50;;;;;;5048682;28;20013;-78
2021/10/20 02:45:33;;;;;;;3.47;2.83;;;16.60;78.50;;;;;;5053852;28;20104;-78
2021/10/20 02:47:58;;;;;;;4.82;2.85;;;16.50;78.40;;;;;;5052734;28;20056;-78
2021/10/20 02:50:28;;;;;;;3.08;2.60;;;16.50;78.50;;;;;;5053135;28;20036;-79
2021/10/20 02:52:53;;;;;;;5.10;3.05;;;16.50;78.50;;;;;;5047238;28;20059;-78
2021/10/20 02:55:19;;;;;;;5.45;3.72;;;16.50;78.40;;;;;;5045008;28;20504;-80
2021/10/20 02:57:44;;;;;;;4.40;2.70;;;16.50;78.30;;;;;;5052559;28;20052;-79
2021/10/20 03:00:10;;;;;;;4.13;2.60;;;16.50;78.50;;;;;;5053481;28;20044;-78
2021/10/20 03:02:36;;;;;;;4.32;2.40;;;16.50;78.40;;;;;;5052746;28;20541;-78
2021/10/20 03:05:02;;;;;;;3.88;2.60;;;16.50;78.50;;;;;;5052904;28;20028;-78
2021/10/20 03:07:28;;;;;;;4.95;3.00;;;16.40;78.50;;;;;;5053407;28;20025;-78
2021/10/20 03:09:53;;;;;;;3.88;3.10;;;16.50;78.60;;;;;;5045912;28;20490;-78
2021/10/20 03:12:19;;;;;;;3.53;2.97;;;16.40;78.30;;;;;;5052836;28;20430;-77
2021/10/20 03:14:44;;;;;;;5.25;3.20;;;16.40;78.40;;;;;;5053014;28;20029;-77
2021/10/20 03:17:11;;;;;;;5.80;3.53;;;16.40;78.40;;;;;;5052159;28;20029;-78
2021/10/20 03:19:37;;;;;;;5.10;3.60;;;16.40;78.50;;;;;;5053162;28;20105;-78
2021/10/20 03:22:04;;;;;;;5.20;3.88;;;16.30;78.40;;;;;;5052812;28;20100;-78
2021/10/20 03:24:29;;;;;;;3.85;3.10;;;16.40;78.30;;;;;;5052183;28;20480;-77
2021/10/20 03:26:55;;;;;;;4.15;3.28;;;16.30;78.30;;;;;;5052461;28;20071;-78
2021/10/20 03:29:21;;;;;;;5.07;3.40;;;16.30;78.50;;;;;;5051015;28;20517;-78
2021/10/20 03:31:46;;;;;;;4.60;3.10;;;16.30;78.50;;;;;;5052826;28;20036;-78
2021/10/20 03:34:12;;;;;;;5.10;3.40;;;16.30;78.70;;;;;;5052438;28;20037;-78
2021/10/20 03:36:37;;;;;;;4.15;3.75;;;16.30;78.50;;;;;;5050196;28;20124;-78
2021/10/20 03:39:03;;;;;;;4.70;3.58;;;16.30;78.50;;;;;;5051056;28;20080;-79
2021/10/20 03:41:28;;;;;;;4.20;3.40;;;16.30;78.50;;;;;;5051172;28;20112;-78
2021/10/20 03:43:54;;;;;;;4.30;3.15;;;16.40;78.40;;;;;;5052250;28;20017;-78
2021/10/20 03:46:20;;;;;;;5.63;3.60;;;16.40;78.40;;;;;;5047873;28;20028;-78
2021/10/20 03:48:45;;;;;;;6.00;3.92;;;16.40;78.30;;;;;;5051472;28;20526;-79
2021/10/20 03:51:11;;;;;;;4.03;3.13;;;16.40;78.20;;;;;;5051717;28;20017;-78
2021/10/20 03:53:36;;;;;;;4.10;3.42;;;16.40;78.40;;;;;;5052425;28;20025;-79
2021/10/20 03:56:02;;;;;;;4.10;3.17;;;16.40;78.40;;;;;;5050667;28;20448;-77
2021/10/20 03:58:27;;;;;;;6.28;3.90;;;16.40;78.40;;;;;;5050921;28;20082;-79
2021/10/20 04:00:54;;;;;;;4.47;3.55;;;16.40;78.40;;;;;;5051128;28;20021;-79
2021/10/20 04:03:20;;;;;;;7.45;4.85;;;16.40;78.30;;;;;;5051943;28;20162;-79
2021/10/20 04:05:46;;;;;;;4.93;3.50;;;16.40;78.10;;;;;;5051621;28;20535;-79
2021/10/20 04:08:11;;;;;;;4.45;3.80;;;16.40;78.20;;;;;;5050433;28;20376;-79
2021/10/20 04:10:37;;;;;;;4.82;3.30;;;16.40;78.20;;;;;;5051685;28;20021;-78
2021/10/20 04:13:02;;;;;;;6.93;3.90;;;16.40;78.20;;;;;;5052467;28;20029;-79
2021/10/20 04:15:28;;;;;;;6.60;4.28;;;16.40;78.10;;;;;;5044168;28;20029;-79
2021/10/20 04:17:53;;;;;;;5.90;3.83;;;16.40;78.00;;;;;;5051419;28;20021;-79
2021/10/20 04:20:20;;;;;;;4.65;4.10;;;16.40;78.00;;;;;;5051338;28;20518;-79
2021/10/20 04:22:50;;;;;;;3.50;3.10;;;16.40;78.00;;;;;;5051652;28;20483;-78
2021/10/20 04:25:17;;;;;;;6.20;3.72;;;16.40;78.10;;;;;;5051272;28;20090;-78
2021/10/20 04:27:43;;;;;;;5.22;3.38;;;16.40;78.20;;;;;;5051163;28;20365;-77
2021/10/20 04:30:11;;;;;;;4.75;3.10;;;16.40;78.30;;;;;;5049650;28;20055;-77
2021/10/20 04:32:37;;;;;;;4.70;3.50;;;16.40;78.40;;;;;;5043095;28;20025;-77
2021/10/20 04:35:04;;;;;;;4.47;3.75;;;16.40;78.40;;;;;;5050893;28;21837;-77
2021/10/20 04:37:30;;;;;;;4.90;3.85;;;16.40;78.30;;;;;;5040031;28;20021;-78
2021/10/20 04:39:57;;;;;;;3.40;2.90;;;16.50;78.30;;;;;;5051574;28;20091;-78
2021/10/20 04:42:27;;;;;;;3.47;2.78;;;16.50;78.40;;;;;;5050118;28;20025;-77
2021/10/20 04:44:53;;;;;;;3.65;3.20;;;16.50;78.60;;;;;;5049338;28;20028;-77
2021/10/20 04:47:19;;;;;;;4.05;3.47;;;16.50;78.50;;;;;;5048645;28;20400;-78
2021/10/20 04:49:45;;;;;;;5.63;3.72;;;16.50;78.60;;;;;;5050484;28;20124;-79
2021/10/20 04:52:11;;;;;;;4.55;3.30;;;16.50;78.60;;;;;;5050465;28;20471;-76
2021/10/20 04:54:37;;;;;;;3.70;2.60;;;16.50;78.40;;;;;;5050915;28;20048;-76
2021/10/20 04:57:03;;;;;;;6.82;3.53;;;16.50;78.50;;;;;;5050555;28;20171;-77
2021/10/20 04:59:31;;;;;;;3.95;3.03;;;16.50;78.40;;;;;;5054620;28;20075;-77
2021/10/20 05:01:58;;;;;;;4.78;3.40;;;16.60;78.40;;;;;;5050780;28;20588;-77
2021/10/20 05:04:23;;;;;;;5.57;3.67;;;16.60;78.30;;;;;;5048975;28;20536;-77
2021/10/20 05:06:49;;;;;;;3.88;3.20;;;16.60;78.30;;;;;;5049372;28;20029;-77
2021/10/20 05:09:14;;;;;;;5.60;4.30;;;16.60;78.30;;;;;;5050879;28;20391;-78
2021/10/20 05:11:40;;;;;;;6.65;4.70;;;16.60;78.10;;;;;;5050266;28;20395;-82
2021/10/20 05:14:05;;;;;;;4.25;3.13;;;16.60;77.90;;;;;;5051092;28;20048;-80
2021/10/20 05:16:31;;;;;;;4.95;3.70;;;16.60;78.10;;;;;;5050272;28;20056;-80
2021/10/20 05:18:56;;;;;;;5.40;3.92;;;16.60;78.10;;;;;;5048698;28;20029;-81
2021/10/20 05:21:22;;;;;;;5.65;4.47;;;16.60;78.10;;;;;;5049291;28;20541;-82
2021/10/20 05:23:50;;;;;;;6.75;3.78;;;16.60;78.10;;;;;;5050114;28;20029;-82
2021/10/20 05:26:17;;;;;;;5.22;4.20;;;16.60;77.90;;;;;;5037124;28;20029;-82
2021/10/20 05:28:42;;;;;;;3.90;3.38;;;16.60;77.90;;;;;;5050181;28;20102;-81
2021/10/20 05:31:08;;;;;;;5.53;3.85;;;16.60;78.00;;;;;;5043945;28;20053;-82
2021/10/20 05:33:33;;;;;;;4.57;3.60;;;16.60;78.00;;;;;;5050579;28;20392;-80
2021/10/20 05:35:59;;;;;;;5.88;4.57;;;16.50;78.00;;;;;;5042981;28;20021;-79
2021/10/20 05:38:24;;;;;;;6.18;4.65;;;16.60;78.00;;;;;;5049530;28;20025;-80
2021/10/20 05:40:50;;;;;;;4.90;3.65;;;16.50;77.90;;;;;;5050986;28;20571;-80
2021/10/20 05:43:16;;;;;;;4.30;3.50;;;16.50;78.00;;;;;;5037619;28;20032;-80
2021/10/20 05:45:41;;;;;;;3.67;3.20;;;16.50;78.20;;;;;;5045449;28;20029;-82
2021/10/20 05:48:07;;;;;;;5.35;4.00;;;16.60;78.20;;;;;;5030762;28;20551;-78
2021/10/20 05:50:32;;;;;;;5.45;4.15;;;16.60;78.20;;;;;;5030965;28;20025;-77
2021/10/20 05:52:58;;;;;;;3.78;3.10;;;16.50;78.20;;;;;;5031232;28;20125;-77
2021/10/20 05:55:24;;;;;;;4.38;3.40;;;16.50;78.30;;;;;;5031498;28;20021;-77
2021/10/20 05:57:49;;;;;;;3.80;3.15;;;16.50;78.30;;;;;;5045434;28;20119;-77
2021/10/20 06:00:15;;;;;;;5.20;4.13;;;16.50;78.40;;;;;;5058655;28;20024;-77
2021/10/20 06:02:41;;;;;;;6.20;4.43;;;16.50;78.30;;;;;;5049818;28;20037;-77
2021/10/20 06:05:07;;;;;;;4.88;3.55;;;16.50;78.10;;;;;;5069946;28;20009;-77
2021/10/20 06:07:46;;;;;;;5.47;3.55;;;16.50;78.20;;;;;;5060832;28;20498;-77
2021/10/20 06:10:13;;;;;;;4.00;3.15;;;16.50;78.20;;;;;;5060892;28;20032;-77
2021/10/20 06:12:39;;;;;;;4.82;3.42;;;16.50;78.20;;;;;;5069364;28;20053;-77
2021/10/20 06:15:09;;;;;;;5.85;4.30;;;16.50;78.10;;;;;;5052798;28;20490;-77
2021/10/20 06:17:35;;;;;;;7.03;3.78;;;16.60;78.10;;;;;;5065465;28;20025;-77
2021/10/20 06:20:03;;;;;;;5.18;4.03;;;16.50;77.90;;;;;;5066512;28;20029;-77
2021/10/20 06:22:28;;;;;;;5.07;4.07;;;16.60;78.40;;;;;;5058086;28;20044;-78
2021/10/20 06:24:54;;;;;;;6.50;3.72;;;16.60;77.80;;;;;;5070887;28;20021;-78
2021/10/20 06:27:20;;;;;;;5.72;3.28;;;16.60;77.70;;;;;;5059001;28;20540;-78
2021/10/20 06:29:45;;;;;;;5.78;3.40;;;16.60;77.80;;;;;;5063914;28;20051;-78
2021/10/20 06:32:11;;;;;;;5.80;4.03;;;16.60;77.80;;;;;;5066054;28;20018;-78
2021/10/20 06:34:36;;;;;;;3.92;3.28;;;16.70;77.80;;;;;;5057190;28;20055;-77
2021/10/20 06:37:02;;;;;;;3.78;3.13;;;16.70;77.80;;;;;;5069742;28;20025;-77
2021/10/20 06:39:28;;;;;;;4.85;3.50;;;16.70;77.80;;;;;;5061653;28;20036;-77
2021/10/20 06:41:54;;;;;;;6.55;4.40;;;16.70;77.80;;;;;;5062319;28;20047;-78
2021/10/20 06:44:20;;;;;;;6.03;3.97;;;16.70;77.60;;;;;;5068499;28;20493;-78
2021/10/20 06:46:46;;;;;;;5.35;4.13;;;16.70;77.70;;;;;;5055314;28;20017;-77
2021/10/20 06:49:12;;;;;;;4.80;4.10;;;16.70;77.70;;;;;;5066707;28;20059;-77
2021/10/20 06:51:39;;;;;;;7.50;4.20;;;16.70;77.70;;;;;;5061401;28;20116;-78
2021/10/20 06:54:05;;;;;;;7.78;5.72;;;16.70;77.60;;;;;;5060842;28;20479;-77
2021/10/20 06:56:30;;;;;;;6.35;4.85;;;16.70;77.70;;;;;;5069817;28;20023;-77
2021/10/20 06:58:56;;;;;;;4.80;4.03;;;16.70;77.80;;;;;;5056675;28;20471;-77
2021/10/20 07:01:21;;;;;;;7.43;4.50;;;16.70;77.80;;;;;;5067137;28;20529;-78
2021/10/20 07:03:47;;;;;;;6.50;5.15;;;16.70;77.80;;;;;;5053715;28;20150;-78
2021/10/20 07:06:12;;;;;;;5.55;4.03;;;16.70;77.70;;;;;;5067617;28;20359;-78
2021/10/20 07:08:38;;;;;;;5.13;4.05;;;16.70;77.80;;;;;;5054884;28;20017;-78
2021/10/20 07:11:07;;;;;;;3.67;3.10;;;16.70;77.90;;;;;;5068836;28;20021;-78
2021/10/20 07:13:32;;;;;;;5.63;4.38;;;16.70;78.00;;;;;;5060526;28;20407;-78
2021/10/20 07:15:58;;;;;;;5.35;3.85;;;16.70;78.00;;;;;;5061288;28;20029;-78
2021/10/20 07:18:26;;;;;;;7.60;4.57;;;16.70;78.00;;;;;;5066795;28;20029;-78
2021/10/20 07:20:52;;;;;;;4.70;3.78;;;16.70;78.10;;;;;;5054053;28;20036;-78
2021/10/20 07:23:18;;;;;;;4.60;3.72;;;16.70;78.20;;;;;;5059382;28;20029;-78
2021/10/20 07:25:43;;;;;;;5.05;3.90;;;16.70;78.20;;;;;;5062290;28;20120;-77
2021/10/20 07:28:09;;;;;;;3.90;3.40;;;16.70;78.40;;;;;;5042636;28;20014;-78
2021/10/20 07:30:37;;;;;;;5.32;3.40;;;16.70;78.40;;;;;;5043654;28;20040;-77
2021/10/20 07:33:03;;;;;;;4.57;3.58;;;16.80;78.50;;;;;;5043844;28;20487;-77
2021/10/20 07:35:28;;;;;;;6.97;4.60;;;16.80;78.50;;;;;;5044505;28;20029;-78
2021/10/20 07:37:54;;;;;;;5.10;2.70;;;16.90;78.50;;;;;;5043236;28;20013;-78
2021/10/20 07:40:20;;;;;;;6.72;4.63;;;16.90;78.50;;;;;;5044293;28;20498;-77
2021/10/20 07:42:45;;;;;;;6.63;5.20;;;16.90;78.60;;;;;;5043133;28;20495;-78
2021/10/20 07:45:15;;;;;;;5.68;4.65;;;16.90;78.90;;;;;;5047821;28;20060;-77
2021/10/20 07:47:41;;;;;;;6.40;3.70;;;16.80;79.00;;;;;;5049361;28;20032;-76
2021/10/20 07:50:07;;;;;;;6.47;4.50;;;16.80;79.20;;;;;;5047142;28;20113;-77
2021/10/20 07:52:34;;;;;;;6.90;4.93;;;16.80;79.30;;;;;;5053650;28;20037;-76
2021/10/20 07:55:03;;;;;;;5.35;3.60;;;16.80;79.50;;;;;;5048312;28;20383;-75
2021/10/20 07:57:29;;;;;;;6.10;4.30;;;16.80;79.60;;;;;;5049822;28;20020;-79
2021/10/20 07:59:55;;;;;;;6.22;4.45;;;16.80;79.80;;;;;;5055621;28;20025;-76
2021/10/20 08:02:21;;;;;;;9.02;5.38;;;16.80;80.00;;;;;;5046996;28;20036;-77
2021/10/20 08:04:47;;;;;;;7.68;5.38;;;16.80;80.30;;;;;;5058001;28;20031;-78
2021/10/20 08:07:13;;;;;;;5.65;4.40;;;16.80;80.50;;;;;;5058279;28;20115;-79
2021/10/20 08:09:38;;;;;;;5.43;3.83;;;16.70;80.60;;;;;;5065189;28;20442;-77
2021/10/20 08:12:04;;;;;;;6.88;5.50;;;16.70;80.80;;;;;;5057675;28;20043;-78
2021/10/20 08:14:30;;;;;;;5.35;4.30;;;16.70;81.00;;;;;;5058078;28;20033;-79
2021/10/20 08:16:56;;;;;;;6.32;4.38;;;16.70;81.10;;;;;;5061134;28;20054;-79
2021/10/20 08:19:22;;;;;;;6.57;4.57;;;16.70;81.10;;;;;;5057395;28;20113;-79
2021/10/20 08:21:47;;;;;;;4.18;3.63;;;16.70;81.20;;;;;;5050592;28;20033;-80
2021/10/20 08:24:13;;;;;;;3.92;3.28;;;16.70;81.20;;;;;;5064330;28;20024;-80
2021/10/20 08:26:38;;;;;;;6.25;4.47;;;16.80;81.30;;;;;;5068403;28;20026;-80
2021/10/20 08:29:04;;;;;;;5.28;4.45;;;16.70;81.30;;;;;;5055800;28;20026;-80
2021/10/20 08:31:29;;;;;;;6.22;4.22;;;16.70;81.60;;;;;;5064012;28;20064;-81
2021/10/20 08:33:55;;;;;;;5.90;4.50;;;16.70;81.80;;;;;;5061804;28;20039;-81
2021/10/20 08:36:20;;;;;;;6.90;5.43;;;16.70;81.90;;;;;;5057267;28;20033;-81
2021/10/20 08:38:46;;;;;;;7.40;5.40;;;16.70;82.10;;;;;;5067992;28;20024;-81
2021/10/20 08:41:12;;;;;;;5.32;4.43;;;16.70;82.30;;;;;;5043138;28;20550;-84
2021/10/20 08:43:38;;;;;;;6.32;5.15;;;16.70;82.40;;;;;;5032031;28;20037;-83
2021/10/20 08:46:04;;;;;;;6.78;5.57;;;16.70;82.60;;;;;;5057704;28;20066;-87
2021/10/20 08:48:31;;;;;;;8.10;5.22;;;16.80;82.80;;;;;;5055881;28;20024;-88
2021/10/20 08:51:00;;;;;;;7.68;5.68;;;16.80;82.70;;;;;;5067896;28;20464;-82
2021/10/20 08:53:26;;;;;;;5.07;4.40;;;16.80;82.70;;;;;;5058777;28;20056;-80
2021/10/20 08:55:52;;;;;;;7.70;5.78;;;16.90;82.70;;;;;;5060742;28;20059;-80
2021/10/20 08:58:19;;;;;;;7.68;5.63;;;17.00;82.60;;;;;;5060472;28;20837;-79
2021/10/20 09:00:45;;;;;;;7.82;5.72;;;17.10;82.50;;;;;;5064351;28;20017;-79
2021/10/20 09:03:11;;;;;;;5.70;4.57;;;17.20;82.10;;;;;;5047865;28;20689;-80
2021/10/20 09:05:37;;;;;;;6.50;4.72;;;17.20;82.00;;;;;;5050933;28;20099;-78
2021/10/20 09:08:03;;;;;;;8.02;6.20;;;17.20;81.90;;;;;;5045549;28;20025;-79
2021/10/20 09:10:30;;;;;;;6.28;4.78;;;17.20;81.60;;;;;;5046236;28;20104;-78
2021/10/20 09:12:58;;;;;;;6.35;4.13;;;17.20;81.60;;;;;;5046424;28;20028;-80
2021/10/20 09:15:26;;;;;;;6.30;4.90;;;17.20;81.50;;;;;;5057596;28;20037;-80
2021/10/20 09:17:58;;;;;;;6.95;5.20;;;17.30;81.40;;;;;;5050701;28;20063;-78
2021/10/20 09:20:27;;;;;;;7.05;6.05;;;17.30;81.40;;;;;;5047504;28;20126;-79
2021/10/20 09:22:56;;;;;;;7.05;5.88;;;17.20;81.30;;;;;;5053273;28;20079;-78
2021/10/20 09:25:31;;;;;;;5.90;4.72;;;17.20;81.30;;;;;;5059602;28;20245;-77
2021/10/20 09:27:57;;;;;;;7.90;5.22;;;17.20;81.40;;;;;;5058147;28;20119;-78
2021/10/20 09:30:23;;;;;;;6.70;5.55;;;17.20;81.40;;;;;;5061172;28;20104;-80
2021/10/20 09:32:50;;;;;;;7.15;5.20;;;17.30;81.50;;;;;;5052684;28;20387;-81
2021/10/20 09:35:16;;;;;;;7.18;5.80;;;17.30;81.50;;;;;;5057093;28;20028;-79
2021/10/20 09:37:42;;;;;;;8.20;6.28;;;17.30;81.30;;;;;;5046656;28;20464;-79
2021/10/20 09:40:10;;;;;;;5.78;5.18;;;17.30;81.30;;;;;;5050100;28;20074;-77
2021/10/20 09:42:47;;;;;;;7.85;4.93;;;17.30;81.30;;;;;;5042283;28;20039;-78
2021/10/20 09:45:15;;;;;;;7.55;6.18;;;17.30;81.30;;;;;;5045030;28;20033;-79
2021/10/20 09:47:41;;;;;;;6.97;5.05;;;17.30;81.30;;;;;;5049285;28;20059;-79
2021/10/20 09:50:08;;;;;;;5.85;4.88;;;17.40;81.30;;;;;;5053153;28;20040;-79
2021/10/20 09:52:50;;;;;;;6.78;5.10;;;17.40;81.30;;;;;;5043617;28;20468;-79
2021/10/20 09:55:36;;;;;;;6.05;5.05;;;17.40;81.30;;;;;;5046819;28;20029;-79
2021/10/20 09:58:14;;;;;;;6.85;5.45;;;17.40;81.30;;;;;;5044129;28;20037;-79
2021/10/20 10:00:44;;;;;;;8.60;5.85;;;17.40;81.30;;;;;;5043755;28;20024;-79
2021/10/20 10:03:11;;;;;;;8.63;6.03;;;17.40;81.20;;;;;;5054655;28;20029;-79
2021/10/20 10:05:36;;;;;;;7.43;5.63;;;17.50;81.30;;;;;;5052289;28;20036;-79
2021/10/20 10:08:02;;;;;;;8.40;5.95;;;17.50;81.30;;;;;;5054011;28;20024;-79
2021/10/20 10:10:28;;;;;;;6.03;5.15;;;17.60;81.20;;;;;;5057010;28;20052;-79
2021/10/20 10:13:18;;;;;;;7.32;5.90;;;17.70;81.00;;;;;;5051106;28;20036;-78
2021/10/20 10:15:45;;;;;;;6.70;5.63;;;17.80;80.90;;;;;;5050617;28;20128;-78
2021/10/20 10:18:12;;;;;;;6.85;5.40;;;18.00;80.70;;;;;;5050823;28;20032;-79
2021/10/20 10:20:43;;;;;;;8.68;5.65;;;18.00;80.40;;;;;;5054164;28;20032;-78
2021/10/20 10:23:27;;;;;;;7.65;6.20;;;18.00;80.30;;;;;;5044072;28;20563;-80
2021/10/20 10:26:07;;;;;;;7.70;5.03;;;18.00;80.30;;;;;;5045216;28;20020;-78
2021/10/20 10:28:35;;;;;;;7.05;5.25;;;18.00;80.40;;;;;;5045245;28;20109;-76
2021/10/20 10:31:09;;;;;;;6.63;5.07;;;18.00;80.50;;;;;;5043717;28;20025;-77
2021/10/20 10:33:57;;;;;;;5.38;4.75;;;17.90;80.60;;;;;;5046085;28;20629;-78
2021/10/20 10:36:24;;;;;;;5.90;5.30;;;17.90;80.50;;;;;;5047829;28;20036;-78
2021/10/20 10:39:05;;;;;;;6.20;5.05;;;17.90;80.60;;;;;;5047434;28;20037;-77
2021/10/20 10:41:35;;;;;;;7.70;5.53;;;17.80;80.60;;;;;;5051145;28;20017;-78
2021/10/20 10:44:01;;;;;;;6.60;4.97;;;17.80;80.50;;;;;;5053351;28;20471;-78
2021/10/20 10:46:29;;;;;;;5.53;4.75;;;17.80;80.60;;;;;;5046650;28;20118;-78
2021/10/20 10:48:56;;;;;;;6.78;5.00;;;17.80;80.80;;;;;;5052990;28;20031;-77
2021/10/20 10:51:22;;;;;;;5.65;4.30;;;17.80;80.70;;;;;;5049533;28;20021;-78
2021/10/20 10:53:55;;;;;;;6.30;4.50;;;17.90;80.70;;;;;;5055126;28;20052;-77
2021/10/20 10:56:21;;;;;;;8.30;5.30;;;17.90;80.60;;;;;;5041761;28;20523;-76
2021/10/20 10:59:08;;;;;;;4.35;3.95;;;17.90;80.40;;;;;;5051231;28;20055;-79
2021/10/20 11:01:45;;;;;;;5.32;3.80;;;17.90;80.50;;;;;;5043292;28;20144;-81
2021/10/20 11:04:27;;;;;;;5.22;4.50;;;17.90;80.50;;;;;;5048940;28;20392;-75
2021/10/20 11:06:55;;;;;;;8.00;6.40;;;17.90;80.40;;;;;;5052931;28;20035;-76
2021/10/20 11:09:26;;;;;;;5.47;4.53;;;17.90;80.40;;;;;;5046911;28;20163;-77
2021/10/20 11:11:55;;;;;;;4.88;4.00;;;17.90;80.30;;;;;;5054084;28;20051;-77
2021/10/20 11:14:23;;;;;;;5.18;3.72;;;17.90;80.30;;;;;;5051801;28;20040;-77
2021/10/20 11:16:50;;;;;;;4.80;3.80;;;18.00;80.40;;;;;;5051060;28;20020;-78
2021/10/20 11:19:22;;;;;;;5.43;3.92;;;18.00;80.40;;;;;;5057658;28;20032;-77
2021/10/20 11:21:48;;;;;;;6.93;5.43;;;18.00;80.30;;;;;;5048434;28;20553;-77
2021/10/20 11:24:14;;;;;;;6.55;5.18;;;18.00;80.20;;;;;;5057334;28;20025;-76
2021/10/20 11:26:40;;;;;;;5.85;4.25;;;17.90;80.00;;;;;;5047902;28;20108;-75
2021/10/20 11:29:07;;;;;;;8.13;5.40;;;17.90;80.00;;;;;;5048260;28;20519;-75
2021/10/20 11:31:37;;;;;;;5.22;4.05;;;17.90;80.00;;;;;;5044848;28;20026;-77
2021/10/20 11:34:19;;;;;;;5.35;3.80;;;17.90;80.10;;;;;;5043441;28;20055;-80
2021/10/20 11:36:45;;;;;;;5.05;4.22;;;18.00;80.00;;;;;;5048780;28;20043;-77
2021/10/20 11:39:12;;;;;;;5.63;4.32;;;18.00;80.10;;;;;;5028623;28;20053;-78
2021/10/20 11:41:47;;;;;;;5.47;3.60;;;18.00;80.00;;;;;;5044795;28;20033;-80
2021/10/20 11:44:16;;;;;;;7.45;4.45;;;18.00;80.00;;;;;;5044230;28;20032;-81
2021/10/20 11:46:45;;;;;;;5.88;3.72;;;18.00;79.90;;;;;;5041556;28;20025;-79
2021/10/20 11:49:11;;;;;;;4.80;4.20;;;18.00;79.90;;;;;;5046064;28;20063;-80
2021/10/20 11:51:36;;;;;;;4.88;4.28;;;18.00;79.80;;;;;;5043013;28;20034;-81
2021/10/20 11:54:07;;;;;;;5.57;3.83;;;18.10;79.80;;;;;;5049083;28;20094;-79
2021/10/20 11:56:33;;;;;;;4.38;3.63;;;18.10;79.80;;;;;;5047545;28;20032;-77
2021/10/20 11:58:58;;;;;;;6.43;4.32;;;18.10;79.70;;;;;;5046254;28;20496;-78
2021/10/20 12:01:24;;;;;;;5.78;4.43;;;18.10;79.60;;;;;;5046733;28;20462;-82
2021/10/20 12:03:49;;;;;;;5.10;3.53;;;18.10;79.70;;;;;;5052491;28;20041;-78
2021/10/20 12:06:20;;;;;;;6.32;4.00;;;18.10;79.70;;;;;;5045489;28;20086;-78
2021/10/20 12:08:47;;;;;;;4.75;3.78;;;18.10;79.80;;;;;;5050436;28;20056;-77
2021/10/20 12:11:18;;;;;;;5.60;4.50;;;18.10;79.80;;;;;;5044855;28;20029;-80
2021/10/20 12:13:44;;;;;;;5.22;3.95;;;18.10;79.80;;;;;;5044366;28;20041;-78
2021/10/20 12:16:11;;;;;;;4.85;3.88;;;18.10;79.80;;;;;;5045645;28;20021;-80
2021/10/20 12:18:41;;;;;;;4.93;3.95;;;18.10;79.80;;;;;;5046604;28;20032;-83
2021/10/20 12:21:15;;;;;;;5.35;3.78;;;18.10;79.80;;;;;;5040800;28;20025;-79
2021/10/20 12:23:46;;;;;;;3.80;3.28;;;18.10;79.80;;;;;;5047741;28;20032;-80
2021/10/20 12:26:12;;;;;;;5.13;3.38;;;18.10;79.80;;;;;;5044176;28;20029;-82
2021/10/20 12:28:40;;;;;;;4.72;4.22;;;18.10;79.80;;;;;;5048689;28;20086;-80
2021/10/20 12:31:15;;;;;;;7.03;4.70;;;18.10;79.70;;;;;;5045423;28;20079;-83
2021/10/20 12:33:45;;;;;;;5.93;3.80;;;18.10;80.00;;;;;;5043097;28;20029;-82
2021/10/20 12:36:13;;;;;;;4.20;3.80;;;18.10;80.30;;;;;;5047595;28;20391;-83
2021/10/20 12:38:41;;;;;;;6.13;4.32;;;18.10;80.60;;;;;;5051565;28;20027;-84
2021/10/20 12:41:11;;;;;;;5.20;3.53;;;18.10;80.70;;;;;;5054076;28;20032;-82
2021/10/20 12:43:37;;;;;;;5.30;3.78;;;18.10;80.80;;;;;;5051961;28;20021;-82
2021/10/20 12:46:04;;;;;;;6.53;5.05;;;18.10;80.70;;;;;;5061116;28;20078;-83
2021/10/20 12:48:31;;;;;;;5.30;3.60;;;18.10;80.60;;;;;;5054232;28;20029;-82